createdAt,value
2022-09-03T00:00:39.791Z,15.60
2022-09-03T00:03:31.548Z,15.60
2022-09-03T00:06:12.257Z,15.60
2022-09-03T00:08:54.790Z,15.60
2022-09-03T00:12:11.596Z,15.60
2022-09-03T00:14:53.256Z,15.60
2022-09-03T00:17:30.903Z,15.60
2022-09-03T00:20:20.508Z,15.50
2022-09-03T00:22:55.407Z,15.50
2022-09-03T00:25:47.543Z,15.50
2022-09-03T00:28:26.583Z,15.50
2022-09-03T00:31:27.415Z,15.60
2022-09-03T00:34:15.188Z,15.60
2022-09-03T00:36:47.101Z,15.60
2022-09-03T00:39:21.221Z,15.60
2022-09-03T00:42:20.165Z,15.60
2022-09-03T00:45:10.628Z,15.60
2022-09-03T00:48:08.775Z,15.60
2022-09-03T00:50:49.306Z,15.60
2022-09-03T00:53:51.322Z,15.60
2022-09-03T00:56:44.362Z,15.60
2022-09-03T00:59:34.943Z,15.60
2022-09-03T01:02:30.874Z,15.60
2022-09-03T01:05:02.599Z,15.50
2022-09-03T01:08:04.561Z,15.50
2022-09-03T01:10:59.118Z,15.50
2022-09-03T01:13:45.824Z,15.40
2022-09-03T01:16:49.063Z,15.40
2022-09-03T01:19:36.453Z,15.40
2022-09-03T01:22:21.063Z,15.40
2022-09-03T01:25:32.362Z,15.40
2022-09-03T01:28:27.315Z,15.30
2022-09-03T01:31:18.920Z,15.30
2022-09-03T01:34:11.512Z,15.30
2022-09-03T01:37:20.050Z,15.30
2022-09-03T01:40:16.527Z,15.30
2022-09-03T01:43:14.033Z,15.30
2022-09-03T01:46:02.196Z,15.30
2022-09-03T01:48:44.632Z,15.30
2022-09-03T01:51:25.498Z,15.30
2022-09-03T01:54:21.267Z,15.30
2022-09-03T01:57:34.630Z,15.30
2022-09-03T02:00:15.214Z,15.30
2022-09-03T02:02:51.159Z,15.30
2022-09-03T02:05:26.329Z,15.20
2022-09-03T02:08:02.730Z,15.20
2022-09-03T02:10:47.942Z,15.20
2022-09-03T02:13:22.496Z,15.20
2022-09-03T02:15:58.243Z,15.20
2022-09-03T02:18:36.164Z,15.10
2022-09-03T02:21:08.436Z,15.10
2022-09-03T02:23:41.960Z,15.10
2022-09-03T02:26:18.407Z,15.10
2022-09-03T02:28:51.876Z,15.10
2022-09-03T02:31:24.145Z,15.00
2022-09-03T02:33:57.878Z,15.00
2022-09-03T02:36:33.067Z,14.90
2022-09-03T02:39:05.395Z,14.90
2022-09-03T02:41:37.209Z,14.90
2022-09-03T02:44:26.218Z,14.90
2022-09-03T02:47:00.912Z,14.80
2022-09-03T02:49:33.383Z,14.80
2022-09-03T02:52:12.261Z,14.80
2022-09-03T02:54:45.581Z,14.80
2022-09-03T02:57:18.457Z,14.70
2022-09-03T02:59:59.410Z,14.70
2022-09-03T03:02:31.250Z,14.70
2022-09-03T03:05:04.031Z,14.70
2022-09-03T03:07:39.470Z,14.70
2022-09-03T03:10:12.601Z,14.70
2022-09-03T03:12:45.317Z,14.60
2022-09-03T03:15:17.170Z,14.60
2022-09-03T03:17:48.856Z,14.50
2022-09-03T03:20:20.569Z,14.50
2022-09-03T03:22:52.376Z,14.50
2022-09-03T03:25:24.198Z,14.50
2022-09-03T03:27:56.981Z,14.50
2022-09-03T03:30:28.794Z,14.50
2022-09-03T03:33:01.370Z,14.50
2022-09-03T03:35:33.371Z,14.40
2022-09-03T03:38:05.182Z,14.40
2022-09-03T03:40:38.863Z,14.40
2022-09-03T03:43:10.610Z,14.40
2022-09-03T03:45:42.340Z,14.40
2022-09-03T03:48:14.110Z,14.40
2022-09-03T03:50:45.951Z,14.40
2022-09-03T03:53:17.728Z,14.40
2022-09-03T03:56:01.479Z,14.40
2022-09-03T03:58:33.996Z,14.40
2022-09-03T04:01:11.621Z,14.40
2022-09-03T04:03:44.219Z,14.40
2022-09-03T04:06:19.336Z,14.50
2022-09-03T04:08:52.645Z,14.50
2022-09-03T04:11:25.282Z,14.50
2022-09-03T04:13:57.271Z,14.60
2022-09-03T04:16:29.385Z,14.60
2022-09-03T04:19:01.623Z,14.60
2022-09-03T04:21:33.410Z,14.70
2022-09-03T04:24:06.219Z,14.70
2022-09-03T04:26:38.974Z,14.70
2022-09-03T04:29:11.323Z,14.70
2022-09-03T04:32:03.039Z,14.70
2022-09-03T04:34:35.187Z,14.70
2022-09-03T04:37:06.957Z,14.80
2022-09-03T04:39:39.074Z,14.70
2022-09-03T04:42:10.939Z,14.80
2022-09-03T04:44:42.772Z,14.70
2022-09-03T04:47:15.431Z,14.80
2022-09-03T04:49:47.187Z,14.80
2022-09-03T04:52:19.455Z,14.80
2022-09-03T04:54:51.306Z,14.80
2022-09-03T04:57:23.102Z,14.80
2022-09-03T04:59:55.417Z,14.80
2022-09-03T05:02:27.181Z,14.80
2022-09-03T05:04:58.967Z,14.80
2022-09-03T05:07:38.502Z,14.90
2022-09-03T05:10:20.262Z,14.90
2022-09-03T05:13:00.346Z,14.90
2022-09-03T05:15:33.121Z,15.00
2022-09-03T05:18:04.933Z,15.00
2022-09-03T05:20:36.672Z,15.00
2022-09-03T05:23:08.445Z,15.10
2022-09-03T05:25:40.327Z,15.10
2022-09-03T05:28:12.919Z,15.10
2022-09-03T05:30:44.719Z,15.20
2022-09-03T05:33:16.684Z,15.20
2022-09-03T05:35:48.379Z,15.30
2022-09-03T05:38:20.183Z,15.30
2022-09-03T05:40:52.003Z,15.40
2022-09-03T05:43:23.707Z,15.40
2022-09-03T05:46:03.630Z,15.40
2022-09-03T05:48:37.516Z,15.50
2022-09-03T05:51:11.835Z,15.60
2022-09-03T05:53:49.085Z,15.60
2022-09-03T05:56:22.719Z,15.70
2022-09-03T05:58:57.919Z,15.70
2022-09-03T06:01:32.681Z,15.80
2022-09-03T06:04:10.469Z,15.90
2022-09-03T06:06:44.401Z,15.90
2022-09-03T06:09:18.286Z,16.00
2022-09-03T06:11:50.394Z,16.00
2022-09-03T06:14:23.678Z,16.10
2022-09-03T06:16:56.956Z,16.10
2022-09-03T06:19:28.780Z,16.20
2022-09-03T06:22:00.504Z,16.20
2022-09-03T06:24:32.344Z,16.20
2022-09-03T06:27:04.788Z,16.30
2022-09-03T06:29:38.920Z,16.40
2022-09-03T06:32:10.683Z,16.50
2022-09-03T06:34:42.883Z,16.60
2022-09-03T06:37:14.660Z,16.60
2022-09-03T06:39:46.602Z,16.70
2022-09-03T06:42:18.411Z,16.70
2022-09-03T06:44:51.314Z,16.70
2022-09-03T06:47:23.087Z,16.80
2022-09-03T06:49:54.855Z,16.90
2022-09-03T06:52:27.521Z,17.00
2022-09-03T06:54:59.239Z,17.10
2022-09-03T06:57:31.031Z,17.20
2022-09-03T07:00:03.054Z,17.30
2022-09-03T07:02:34.810Z,17.30
2022-09-03T07:05:07.541Z,17.50
2022-09-03T07:07:40.574Z,17.60
2022-09-03T07:10:16.136Z,17.70
2022-09-03T07:12:47.900Z,17.70
2022-09-03T07:15:19.875Z,17.70
2022-09-03T07:17:51.785Z,17.80
2022-09-03T07:20:23.536Z,17.80
2022-09-03T07:22:56.700Z,17.90
2022-09-03T07:25:28.613Z,18.00
2022-09-03T07:28:00.424Z,18.20
2022-09-03T07:30:32.203Z,18.30
2022-09-03T07:33:04.568Z,18.40
2022-09-03T07:35:37.291Z,18.50
2022-09-03T07:38:09.544Z,18.50
2022-09-03T07:40:41.271Z,18.50
2022-09-03T07:43:13.798Z,18.50
2022-09-03T07:45:50.703Z,18.50
2022-09-03T07:48:22.846Z,18.60
2022-09-03T07:51:01.715Z,18.70
2022-09-03T07:53:33.983Z,18.90
2022-09-03T07:56:10.835Z,19.10
2022-09-03T07:58:43.043Z,19.20
2022-09-03T08:01:20.573Z,19.30
2022-09-03T08:03:53.615Z,19.60
2022-09-03T08:06:27.854Z,19.80
2022-09-03T08:09:05.050Z,19.90
2022-09-03T08:11:40.080Z,20.00
2022-09-03T08:14:13.902Z,20.20
2022-09-03T08:16:48.045Z,20.40
2022-09-03T08:19:20.125Z,20.50
2022-09-03T08:21:51.871Z,20.60
2022-09-03T08:24:25.737Z,20.70
2022-09-03T08:26:57.463Z,20.70
2022-09-03T08:29:29.285Z,20.70
2022-09-03T08:32:04.651Z,20.80
2022-09-03T08:34:37.463Z,20.90
2022-09-03T08:37:10.606Z,21.10
2022-09-03T08:39:42.452Z,21.30
2022-09-03T08:42:37.733Z,21.30
2022-09-03T08:45:14.198Z,21.30
2022-09-03T08:48:03.766Z,21.20
2022-09-03T08:50:42.222Z,21.20
2022-09-03T08:53:18.554Z,21.30
2022-09-03T08:56:13.056Z,21.40
2022-09-03T08:58:44.864Z,21.50
2022-09-03T09:01:37.560Z,21.50
2022-09-03T09:04:29.785Z,21.60
2022-09-03T09:07:14.637Z,21.80
2022-09-03T09:10:01.998Z,21.90
2022-09-03T09:12:58.928Z,22.00
2022-09-03T09:16:00.773Z,22.10
2022-09-03T09:18:41.490Z,22.30
2022-09-03T09:21:46.110Z,22.50
2022-09-03T09:24:24.136Z,22.40
2022-09-03T09:27:01.677Z,22.30
2022-09-03T09:29:36.848Z,22.20
2022-09-03T09:32:12.026Z,22.30
2022-09-03T09:34:46.469Z,23.10
2022-09-03T09:37:22.068Z,24.60
2022-09-03T09:39:57.659Z,25.70
2022-09-03T09:42:31.103Z,26.00
2022-09-03T09:45:11.223Z,26.40
2022-09-03T09:47:43.258Z,27.00
2022-09-03T09:50:24.783Z,26.80
2022-09-03T09:53:14.301Z,25.90
2022-09-03T09:55:58.170Z,25.40
2022-09-03T09:58:32.831Z,25.10
2022-09-03T10:01:14.818Z,24.70
2022-09-03T10:03:57.941Z,24.40
2022-09-03T10:06:53.837Z,23.90
2022-09-03T10:09:31.390Z,23.70
2022-09-03T10:12:24.614Z,23.70
2022-09-03T10:15:13.037Z,23.80
2022-09-03T10:17:59.298Z,23.80
2022-09-03T10:20:47.212Z,23.90
2022-09-03T10:23:30.043Z,25.30
2022-09-03T10:26:11.283Z,26.70
2022-09-03T10:28:47.602Z,27.70
2022-09-03T10:31:37.441Z,28.80
2022-09-03T10:34:35.047Z,29.40
2022-09-03T10:37:18.069Z,28.70
2022-09-03T10:40:00.237Z,27.60
2022-09-03T10:42:55.107Z,26.80
2022-09-03T10:45:54.945Z,26.30
2022-09-03T10:48:49.019Z,25.60
2022-09-03T10:51:38.569Z,24.80
2022-09-03T10:54:45.334Z,24.10
2022-09-03T10:57:37.971Z,23.90
2022-09-03T11:00:14.764Z,23.70
2022-09-03T11:03:05.172Z,23.70
2022-09-03T11:05:48.079Z,23.40
2022-09-03T11:08:30.799Z,23.20
2022-09-03T11:11:27.731Z,23.10
2022-09-03T11:14:10.003Z,23.00
2022-09-03T11:16:53.536Z,22.90
2022-09-03T11:19:40.003Z,22.70
2022-09-03T11:22:13.186Z,22.60
2022-09-03T11:24:54.805Z,22.50
2022-09-03T11:27:41.266Z,22.30
2022-09-03T11:30:22.386Z,22.10
2022-09-03T11:33:00.818Z,22.00
2022-09-03T11:35:32.508Z,21.80
2022-09-03T11:38:16.858Z,21.50
2022-09-03T11:41:38.243Z,21.30
2022-09-03T11:44:19.774Z,21.00
2022-09-03T11:46:59.186Z,20.80
2022-09-03T11:49:33.363Z,20.60
2022-09-03T11:52:10.011Z,20.30
2022-09-03T11:54:46.222Z,20.10
2022-09-03T11:57:27.322Z,19.90
2022-09-03T12:00:12.785Z,19.80
2022-09-03T12:02:54.255Z,19.70
2022-09-03T12:05:51.852Z,19.50
2022-09-03T12:08:43.480Z,19.30
2022-09-03T12:11:40.391Z,18.90
2022-09-03T12:14:18.107Z,18.60
2022-09-03T12:17:20.466Z,18.20
2022-09-03T12:19:54.530Z,17.90
2022-09-03T12:22:38.696Z,17.60
2022-09-03T12:25:15.746Z,17.30
2022-09-03T12:27:49.407Z,17.10
2022-09-03T12:30:25.606Z,17.00
2022-09-03T12:33:09.220Z,17.00
2022-09-03T12:38:44.546Z,16.80
2022-09-03T12:41:31.062Z,16.80
2022-09-03T12:44:03.514Z,16.80
2022-09-03T12:46:35.334Z,16.70
2022-09-03T12:52:06.610Z,16.80
2022-09-03T12:54:55.100Z,16.80
2022-09-03T12:57:42.464Z,16.90
2022-09-03T13:00:17.203Z,17.00
2022-09-03T13:03:02.728Z,17.10
2022-09-03T13:05:46.950Z,17.20
2022-09-03T13:08:26.289Z,17.20
2022-09-03T13:11:03.664Z,17.30
2022-09-03T13:13:37.353Z,17.40
2022-09-03T13:16:09.076Z,17.40
2022-09-03T13:19:06.607Z,17.50
2022-09-03T13:21:41.301Z,17.70
2022-09-03T13:24:45.575Z,17.80
2022-09-03T13:27:34.036Z,18.20
2022-09-03T13:30:13.293Z,18.50
2022-09-03T13:32:51.177Z,18.70
2022-09-03T13:35:29.334Z,18.90
2022-09-03T13:38:23.975Z,19.00
2022-09-03T13:41:01.451Z,18.90
2022-09-03T13:43:33.506Z,19.00
2022-09-03T13:46:36.898Z,19.10
2022-09-03T13:49:55.077Z,19.20
2022-09-03T13:52:48.481Z,19.30
2022-09-03T13:55:36.051Z,19.20
2022-09-03T13:58:32.538Z,19.20
2022-09-03T14:01:22.359Z,19.30
2022-09-03T14:04:00.002Z,19.50
2022-09-03T14:06:42.544Z,19.50
2022-09-03T14:09:17.042Z,19.50
2022-09-03T14:12:06.355Z,19.50
2022-09-03T14:14:38.995Z,19.50
2022-09-03T14:17:33.806Z,19.50
2022-09-03T14:20:28.378Z,19.50
2022-09-03T14:23:18.713Z,19.50
2022-09-03T14:25:55.843Z,19.40
2022-09-03T14:28:33.680Z,19.50
2022-09-03T14:31:36.665Z,19.50
2022-09-03T14:34:27.200Z,19.60
2022-09-03T14:37:06.180Z,19.70
2022-09-03T14:39:49.373Z,19.70
2022-09-03T14:42:36.948Z,19.60
2022-09-03T14:45:45.865Z,19.60
2022-09-03T14:48:41.943Z,19.50
2022-09-03T14:51:31.846Z,19.50
2022-09-03T14:54:44.916Z,19.50
2022-09-03T14:57:26.595Z,19.60
2022-09-03T15:00:18.438Z,19.70
2022-09-03T15:03:19.177Z,19.80
2022-09-03T15:06:09.339Z,19.90
2022-09-03T15:09:07.821Z,20.00
2022-09-03T15:12:10.764Z,20.00
2022-09-03T15:14:50.283Z,20.10
2022-09-03T15:17:47.080Z,20.10
2022-09-03T15:20:50.870Z,20.00
2022-09-03T15:23:41.515Z,20.10
2022-09-03T15:26:28.449Z,20.10
2022-09-03T15:29:10.218Z,20.10
2022-09-03T15:31:47.913Z,20.00
2022-09-03T15:34:22.519Z,20.10
2022-09-03T15:36:57.831Z,20.10
2022-09-03T15:39:35.620Z,20.10
2022-09-03T15:42:14.810Z,20.10
2022-09-03T15:44:51.150Z,20.10
2022-09-03T15:47:28.705Z,20.00
2022-09-03T15:50:38.367Z,20.00
2022-09-03T15:53:34.039Z,20.00
2022-09-03T15:56:38.499Z,20.00
2022-09-03T15:59:27.290Z,20.00
2022-09-03T16:02:04.400Z,20.00
2022-09-03T16:05:07.089Z,20.00
2022-09-03T16:07:38.829Z,20.00
2022-09-03T16:10:25.529Z,19.90
2022-09-03T16:13:28.555Z,19.80
2022-09-03T16:16:04.737Z,19.80
2022-09-03T16:18:39.363Z,19.60
2022-09-03T16:21:20.069Z,19.60
2022-09-03T16:24:09.568Z,19.50
2022-09-03T16:26:54.603Z,19.40
2022-09-03T16:29:30.819Z,19.30
2022-09-03T16:32:11.587Z,19.20
2022-09-03T16:34:43.316Z,19.10
2022-09-03T16:37:37.784Z,19.00
2022-09-03T16:40:34.477Z,18.90
2022-09-03T16:43:39.565Z,18.80
2022-09-03T16:46:53.611Z,18.80
2022-09-03T16:49:52.514Z,18.80
2022-09-03T16:52:56.952Z,18.70
2022-09-03T16:55:50.823Z,18.70
2022-09-03T16:58:35.298Z,18.80
2022-09-03T17:01:40.728Z,18.80
2022-09-03T17:04:31.346Z,18.80
2022-09-03T17:07:13.465Z,18.90
2022-09-03T17:10:12.382Z,18.90
2022-09-03T17:12:50.265Z,18.90
2022-09-03T17:16:09.696Z,19.00
2022-09-03T17:19:34.346Z,19.00
2022-09-03T17:22:39.736Z,18.90
2022-09-03T17:25:35.474Z,18.80
2022-09-03T17:28:24.642Z,18.60
2022-09-03T17:31:03.729Z,18.50
2022-09-03T17:33:50.098Z,18.40
2022-09-03T17:36:32.317Z,18.30
2022-09-03T17:39:30.857Z,18.20
2022-09-03T17:42:40.987Z,18.10
2022-09-03T17:45:41.294Z,18.00
2022-09-03T17:48:49.713Z,17.80
2022-09-03T17:51:35.130Z,17.70
2022-09-03T17:54:16.945Z,17.70
2022-09-03T17:57:10.475Z,17.60
2022-09-03T18:00:05.919Z,17.50
2022-09-03T18:02:54.172Z,17.40
2022-09-03T18:05:34.307Z,17.30
2022-09-03T18:08:49.953Z,17.20
2022-09-03T18:11:40.747Z,17.20
2022-09-03T18:14:28.655Z,17.10
2022-09-03T18:17:18.959Z,17.00
2022-09-03T18:20:17.830Z,17.00
2022-09-03T18:23:11.339Z,16.90
2022-09-03T18:26:05.916Z,16.80
2022-09-03T18:29:01.358Z,16.80
2022-09-03T18:31:52.830Z,16.80
2022-09-03T18:34:51.247Z,16.70
2022-09-03T18:37:44.117Z,16.70
2022-09-03T18:40:46.307Z,16.70
2022-09-03T18:43:59.383Z,16.60
2022-09-03T18:50:50.679Z,16.60
2022-09-03T18:53:58.958Z,16.50
2022-09-03T18:57:08.852Z,16.50
2022-09-03T19:00:29.283Z,16.40
2022-09-03T19:03:19.670Z,16.30
2022-09-03T19:06:40.270Z,16.30
2022-09-03T19:09:48.651Z,16.30
2022-09-03T19:13:13.092Z,16.20
2022-09-03T19:16:10.615Z,16.30
2022-09-03T19:19:19.620Z,16.20
2022-09-03T19:22:17.187Z,16.20
2022-09-03T19:25:12.585Z,16.20
2022-09-03T19:28:21.332Z,16.10
2022-09-03T19:31:39.790Z,16.10
2022-09-03T19:34:55.822Z,16.10
2022-09-03T19:38:17.201Z,16.00
2022-09-03T19:41:16.792Z,16.00
2022-09-03T19:44:10.333Z,15.90
2022-09-03T19:47:07.782Z,15.90
2022-09-03T19:50:01.263Z,15.90
2022-09-03T19:53:11.536Z,15.80
2022-09-03T19:56:10.941Z,15.80
2022-09-03T19:59:10.592Z,15.80
2022-09-03T20:02:01.747Z,15.80
2022-09-03T20:05:02.526Z,15.80
2022-09-03T20:07:53.938Z,15.80
2022-09-03T20:10:27.627Z,15.80
2022-09-03T20:13:08.214Z,15.80
2022-09-03T20:16:04.883Z,15.80
2022-09-03T20:18:54.390Z,15.80
2022-09-03T20:21:55.910Z,15.80
2022-09-03T20:25:07.445Z,15.70
2022-09-03T20:28:06.038Z,15.70
2022-09-03T20:31:08.567Z,15.70
2022-09-03T20:33:58.338Z,15.70
2022-09-03T20:36:54.135Z,15.70
2022-09-03T20:39:38.724Z,15.70
2022-09-03T20:42:41.354Z,15.70
2022-09-03T20:45:25.178Z,15.70
2022-09-03T20:48:08.461Z,15.70
2022-09-03T20:50:53.269Z,15.80
2022-09-03T20:53:25.002Z,15.90
2022-09-03T20:56:15.981Z,15.90
2022-09-03T20:58:58.227Z,16.00
2022-09-03T21:01:51.961Z,16.00
2022-09-03T21:05:01.971Z,16.10
2022-09-03T21:08:01.332Z,16.10
2022-09-03T21:11:01.217Z,16.10
2022-09-03T21:13:54.153Z,16.20
2022-09-03T21:16:54.278Z,16.20
2022-09-03T21:19:47.994Z,16.20
2022-09-03T21:22:31.583Z,16.20
2022-09-03T21:25:07.593Z,16.20
2022-09-03T21:27:58.755Z,16.30
2022-09-03T21:30:34.617Z,16.30
2022-09-03T21:33:23.546Z,16.30
2022-09-03T21:36:07.480Z,16.40
2022-09-03T21:38:39.933Z,16.40
2022-09-03T21:41:27.135Z,16.40
2022-09-03T21:44:10.493Z,16.50
2022-09-03T21:47:02.127Z,16.40
2022-09-03T21:49:49.115Z,16.50
2022-09-03T21:52:31.297Z,16.50
2022-09-03T21:55:21.311Z,16.40
2022-09-03T21:58:16.692Z,16.30
2022-09-03T22:00:51.065Z,16.30
2022-09-03T22:03:22.974Z,16.20
2022-09-03T22:06:03.114Z,16.20
2022-09-03T22:09:03.862Z,16.20
2022-09-03T22:12:05.027Z,16.10
2022-09-03T22:14:53.310Z,16.10
2022-09-03T22:17:38.134Z,16.10
2022-09-03T22:20:14.459Z,16.10
2022-09-03T22:22:52.289Z,16.00
2022-09-03T22:25:28.051Z,16.00
2022-09-03T22:28:24.629Z,15.90
2022-09-03T22:31:14.232Z,15.90
2022-09-03T22:34:11.994Z,15.80
2022-09-03T22:37:04.144Z,15.70
2022-09-03T22:39:41.376Z,15.70
2022-09-03T22:42:43.668Z,15.60
2022-09-03T22:46:00.698Z,15.60
2022-09-03T22:48:56.491Z,15.60
2022-09-03T22:51:35.143Z,15.60
2022-09-03T22:54:38.178Z,15.60
2022-09-03T22:57:12.960Z,15.50
2022-09-03T23:00:04.670Z,15.40
2022-09-03T23:02:38.044Z,15.40
2022-09-03T23:05:32.536Z,15.40
2022-09-03T23:08:17.855Z,15.30
2022-09-03T23:11:09.614Z,15.20
2022-09-03T23:13:47.387Z,15.30
2022-09-03T23:16:40.388Z,15.20
2022-09-03T23:22:20.786Z,15.10
2022-09-03T23:25:05.527Z,15.10
2022-09-03T23:27:43.742Z,15.10
2022-09-03T23:30:15.507Z,15.10
2022-09-03T23:32:52.641Z,15.10
2022-09-03T23:35:30.164Z,15.10
2022-09-03T23:38:29.999Z,15.10
2022-09-03T23:41:10.974Z,15.00
2022-09-03T23:44:09.438Z,15.00
2022-09-03T23:47:01.494Z,15.00
2022-09-03T23:49:46.707Z,15.00
2022-09-03T23:52:43.089Z,14.90
2022-09-03T23:55:44.178Z,14.90
2022-09-03T23:58:27.940Z,14.90
